sensor_id;sensor_type;location;lat;lon;timestamp;pressure;altitude;pressure_sealevel;temperature;humidity
11448;BME280;43755;49.736;8.734;2023-04-06T00:02:00;98114.22;;;-0.37;100.00
11448;BME280;43755;49.736;8.734;2023-04-06T00:04:02;98116.81;;;-0.40;100.00
11448;BME280;43755;49.736;8.734;2023-04-06T00:06:05;98111.63;;;-0.40;100.00
11448;BME280;43755;49.736;8.734;2023-04-06T00:08:07;98104.72;;;-0.36;100.00
11448;BME280;43755;49.736;8.734;2023-04-06T00:10:09;98101.22;;;-0.40;100.00
11448;BME280;43755;49.736;8.734;2023-04-06T00:12:11;98105.56;;;-0.37;100.00
11448;BME280;43755;49.736;8.734;2023-04-06T00:14:13;98098.63;;;-0.38;100.00
11448;BME280;43755;49.736;8.734;2023-04-06T00:16:17;98098.63;;;-0.38;100.00
11448;BME280;43755;49.736;8.734;2023-04-06T00:18:19;98096.00;;;-0.45;100.00
11448;BME280;43755;49.736;8.734;2023-04-06T00:20:21;98099.47;;;-0.47;100.00
11448;BME280;43755;49.736;8.734;2023-04-06T00:22:23;98095.16;;;-0.37;100.00
11448;BME280;43755;49.736;8.734;2023-04-06T00:24:25;98099.47;;;-0.41;100.00
11448;BME280;43755;49.736;8.734;2023-04-06T00:26:27;98095.16;;;-0.45;100.00
11448;BME280;43755;49.736;8.734;2023-04-06T00:28:28;98091.69;;;-0.38;100.00
11448;BME280;43755;49.736;8.734;2023-04-06T00:30:30;98085.66;;;-0.35;100.00
11448;BME280;43755;49.736;8.734;2023-04-06T00:32:32;98082.16;;;-0.33;100.00
11448;BME280;43755;49.736;8.734;2023-04-06T00:34:33;98077.84;;;-0.26;100.00
11448;BME280;43755;49.736;8.734;2023-04-06T00:36:34;98077.00;;;-0.19;100.00
11448;BME280;43755;49.736;8.734;2023-04-06T00:38:37;98089.13;;;-0.14;100.00
11448;BME280;43755;49.736;8.734;2023-04-06T00:40:39;98088.25;;;-0.14;100.00
11448;BME280;43755;49.736;8.734;2023-04-06T00:42:41;98090.00;;;-0.21;100.00
11448;BME280;43755;49.736;8.734;2023-04-06T00:44:42;98086.53;;;-0.24;100.00
11448;BME280;43755;49.736;8.734;2023-04-06T00:46:44;98077.88;;;-0.13;100.00
11448;BME280;43755;49.736;8.734;2023-04-06T00:48:46;98077.00;;;-0.10;100.00
11448;BME280;43755;49.736;8.734;2023-04-06T00:50:47;98076.13;;;-0.15;100.00
11448;BME280;43755;49.736;8.734;2023-04-06T00:52:49;98064.88;;;-0.13;100.00
11448;BME280;43755;49.736;8.734;2023-04-06T00:54:52;98068.31;;;-0.11;100.00
11448;BME280;43755;49.736;8.734;2023-04-06T00:56:53;98062.25;;;-0.08;100.00
11448;BME280;43755;49.736;8.734;2023-04-06T00:58:55;98054.44;;;-0.05;100.00
11448;BME280;43755;49.736;8.734;2023-04-06T01:00:57;98055.31;;;-0.03;100.00
11448;BME280;43755;49.736;8.734;2023-04-06T01:02:59;98054.44;;;-0.05;100.00
11448;BME280;43755;49.736;8.734;2023-04-06T01:05:01;98051.84;;;-0.10;100.00
11448;BME280;43755;49.736;8.734;2023-04-06T01:07:03;98050.13;;;-0.11;100.00
11448;BME280;43755;49.736;8.734;2023-04-06T01:09:04;98052.75;;;-0.12;100.00
11448;BME280;43755;49.736;8.734;2023-04-06T01:11:07;98051.00;;;-0.09;100.00
11448;BME280;43755;49.736;8.734;2023-04-06T01:13:09;98050.13;;;-0.11;100.00
11448;BME280;43755;49.736;8.734;2023-04-06T01:15:10;98042.31;;;-0.15;100.00
11448;BME280;43755;49.736;8.734;2023-04-06T01:17:12;98043.19;;;-0.19;100.00
11448;BME280;43755;49.736;8.734;2023-04-06T01:19:14;98044.03;;;-0.28;100.00
11448;BME280;43755;49.736;8.734;2023-04-06T01:21:15;98035.38;;;-0.33;100.00
11448;BME280;43755;49.736;8.734;2023-04-06T01:23:18;98033.63;;;-0.29;100.00
11448;BME280;43755;49.736;8.734;2023-04-06T01:25:20;98038.00;;;-0.30;100.00
11448;BME280;43755;49.736;8.734;2023-04-06T01:27:21;98033.66;;;-0.43;100.00
11448;BME280;43755;49.736;8.734;2023-04-06T01:29:23;98035.38;;;-0.50;100.00
11448;BME280;43755;49.736;8.734;2023-04-06T01:31:24;98037.09;;;-0.50;100.00
11448;BME280;43755;49.736;8.734;2023-04-06T01:33:26;98033.63;;;-0.52;100.00
11448;BME280;43755;49.736;8.734;2023-04-06T01:35:28;98039.69;;;-0.50;100.00
11448;BME280;43755;49.736;8.734;2023-04-06T01:37:30;98037.94;;;-0.53;100.00
11448;BME280;43755;49.736;8.734;2023-04-06T01:39:34;98046.63;;;-0.54;100.00
11448;BME280;43755;49.736;8.734;2023-04-06T01:41:36;98041.44;;;-0.60;100.00
11448;BME280;43755;49.736;8.734;2023-04-06T01:43:37;98036.22;;;-0.58;100.00
11448;BME280;43755;49.736;8.734;2023-04-06T01:45:39;98034.53;;;-0.43;100.00
11448;BME280;43755;49.736;8.734;2023-04-06T01:47:40;98036.25;;;-0.37;100.00
11448;BME280;43755;49.736;8.734;2023-04-06T01:49:41;98036.28;;;-0.19;100.00
11448;BME280;43755;49.736;8.734;2023-04-06T01:51:43;98032.78;;;0.10;100.00
11448;BME280;43755;49.736;8.734;2023-04-06T01:53:44;98031.88;;;0.30;99.41
11448;BME280;43755;49.736;8.734;2023-04-06T01:55:47;98032.75;;;0.25;100.00
11448;BME280;43755;49.736;8.734;2023-04-06T01:57:49;98029.22;;;0.55;94.74
11448;BME280;43755;49.736;8.734;2023-04-06T01:59:51;98025.72;;;0.69;93.90
11448;BME280;43755;49.736;8.734;2023-04-06T02:01:52;98034.34;;;0.71;94.42
11448;BME280;43755;49.736;8.734;2023-04-06T02:03:54;98021.38;;;0.61;96.59
11448;BME280;43755;49.736;8.734;2023-04-06T02:05:55;98028.38;;;0.47;100.00
11448;BME280;43755;49.736;8.734;2023-04-06T02:07:57;98030.16;;;0.34;100.00
11448;BME280;43755;49.736;8.734;2023-04-06T02:09:58;98022.34;;;0.26;100.00
11448;BME280;43755;49.736;8.734;2023-04-06T02:12:01;98024.09;;;0.17;100.00
11448;BME280;43755;49.736;8.734;2023-04-06T02:14:03;98018.06;;;0.06;100.00
11448;BME280;43755;49.736;8.734;2023-04-06T02:16:05;98028.44;;;-0.04;100.00
11448;BME280;43755;49.736;8.734;2023-04-06T02:18:06;98025.88;;;-0.07;100.00
11448;BME280;43755;49.736;8.734;2023-04-06T02:20:10;98018.94;;;-0.14;100.00
11448;BME280;43755;49.736;8.734;2023-04-06T02:22:11;98018.03;;;-0.17;100.00
11448;BME280;43755;49.736;8.734;2023-04-06T02:24:13;98012.00;;;-0.15;100.00
11448;BME280;43755;49.736;8.734;2023-04-06T02:26:14;98014.59;;;-0.21;100.00
11448;BME280;43755;49.736;8.734;2023-04-06T02:28:17;98020.66;;;-0.20;100.00
11448;BME280;43755;49.736;8.734;2023-04-06T02:30:19;98019.78;;;-0.25;100.00
11448;BME280;43755;49.736;8.734;2023-04-06T02:32:20;98019.78;;;-0.21;100.00
11448;BME280;43755;49.736;8.734;2023-04-06T02:34:22;98014.59;;;-0.16;100.00
11448;BME280;43755;49.736;8.734;2023-04-06T02:36:23;98013.72;;;-0.20;100.00
11448;BME280;43755;49.736;8.734;2023-04-06T02:38:25;98010.25;;;-0.23;100.00
11448;BME280;43755;49.736;8.734;2023-04-06T02:40:26;98011.13;;;-0.26;100.00
11448;BME280;43755;49.736;8.734;2023-04-06T02:42:27;97999.88;;;-0.25;100.00
11448;BME280;43755;49.736;8.734;2023-04-06T02:44:30;98002.44;;;-0.34;100.00
11448;BME280;43755;49.736;8.734;2023-04-06T02:46:32;97995.50;;;-0.41;100.00
11448;BME280;43755;49.736;8.734;2023-04-06T02:48:33;98004.19;;;-0.48;100.00
11448;BME280;43755;49.736;8.734;2023-04-06T02:50:36;98002.44;;;-0.55;100.00
11448;BME280;43755;49.736;8.734;2023-04-06T02:52:37;98005.94;;;-0.53;100.00
11448;BME280;43755;49.736;8.734;2023-04-06T02:54:39;98006.78;;;-0.57;100.00
11448;BME280;43755;49.736;8.734;2023-04-06T02:56:41;98005.06;;;-0.35;100.00
11448;BME280;43755;49.736;8.734;2023-04-06T02:58:42;97999.75;;;0.36;92.68
11448;BME280;43755;49.736;8.734;2023-04-06T03:00:45;97997.84;;;0.85;83.88
11448;BME280;43755;49.736;8.734;2023-04-06T03:02:46;98000.34;;;1.09;82.09
11448;BME280;43755;49.736;8.734;2023-04-06T03:04:48;98002.84;;;1.26;78.84
11448;BME280;43755;49.736;8.734;2023-04-06T03:06:49;98002.78;;;1.40;79.13
11448;BME280;43755;49.736;8.734;2023-04-06T03:08:51;98002.78;;;1.37;81.08
11448;BME280;43755;49.736;8.734;2023-04-06T03:10:52;98006.41;;;1.13;83.98
11448;BME280;43755;49.736;8.734;2023-04-06T03:12:54;97999.56;;;0.92;87.58
11448;BME280;43755;49.736;8.734;2023-04-06T03:14:55;98007.47;;;0.68;92.59
11448;BME280;43755;49.736;8.734;2023-04-06T03:16:58;98010.16;;;0.44;96.17
11448;BME280;43755;49.736;8.734;2023-04-06T03:18:59;98009.34;;;0.29;99.61
11448;BME280;43755;49.736;8.734;2023-04-06T03:21:01;98006.78;;;0.11;100.00
11448;BME280;43755;49.736;8.734;2023-04-06T03:23:02;98003.31;;;-0.03;100.00
11448;BME280;43755;49.736;8.734;2023-04-06T03:25:05;97999.88;;;-0.07;100.00
11448;BME280;43755;49.736;8.734;2023-04-06T03:27:06;98009.38;;;-0.16;100.00
11448;BME280;43755;49.736;8.734;2023-04-06T03:29:08;98011.13;;;-0.21;100.00
11448;BME280;43755;49.736;8.734;2023-04-06T03:31:09;98012.88;;;-0.31;100.00
11448;BME280;43755;49.736;8.734;2023-04-06T03:33:12;98013.72;;;-0.35;100.00
11448;BME280;43755;49.736;8.734;2023-04-06T03:35:14;98012.00;;;-0.36;100.00
11448;BME280;43755;49.736;8.734;2023-04-06T03:37:15;98005.06;;;-0.37;100.00
11448;BME280;43755;49.736;8.734;2023-04-06T03:39:17;98015.47;;;-0.37;100.00
11448;BME280;43755;49.736;8.734;2023-04-06T03:41:18;98013.72;;;-0.43;100.00
11448;BME280;43755;49.736;8.734;2023-04-06T03:43:20;98014.59;;;-0.44;100.00
11448;BME280;43755;49.736;8.734;2023-04-06T03:45:21;98021.53;;;-0.43;100.00
11448;BME280;43755;49.736;8.734;2023-04-06T03:47:23;98014.59;;;-0.48;100.00
11448;BME280;43755;49.736;8.734;2023-04-06T03:49:26;98023.25;;;-0.54;100.00
11448;BME280;43755;49.736;8.734;2023-04-06T03:51:28;98019.78;;;-0.60;100.00
11448;BME280;43755;49.736;8.734;2023-04-06T03:53:29;98018.03;;;-0.67;100.00
11448;BME280;43755;49.736;8.734;2023-04-06T03:55:31;98024.09;;;-0.62;100.00
11448;BME280;43755;49.736;8.734;2023-04-06T03:57:32;98016.28;;;-0.64;100.00
11448;BME280;43755;49.736;8.734;2023-04-06T03:59:34;98019.75;;;-0.62;100.00
11448;BME280;43755;49.736;8.734;2023-04-06T04:01:35;98027.53;;;-0.63;100.00
11448;BME280;43755;49.736;8.734;2023-04-06T04:03:37;98024.09;;;-0.62;100.00
11448;BME280;43755;49.736;8.734;2023-04-06T04:05:40;98024.94;;;-0.68;100.00
11448;BME280;43755;49.736;8.734;2023-04-06T04:07:41;98026.69;;;-0.71;100.00
11448;BME280;43755;49.736;8.734;2023-04-06T04:09:43;98025.81;;;-0.73;100.00
11448;BME280;43755;49.736;8.734;2023-04-06T04:11:44;98024.06;;;-0.74;100.00
11448;BME280;43755;49.736;8.734;2023-04-06T04:13:46;98022.34;;;-0.78;100.00
11448;BME280;43755;49.736;8.734;2023-04-06T04:15:47;98026.69;;;-0.67;100.00
11448;BME280;43755;49.736;8.734;2023-04-06T04:17:49;98026.69;;;-0.71;100.00
11448;BME280;43755;49.736;8.734;2023-04-06T04:19:50;98022.34;;;-0.71;100.00
11448;BME280;43755;49.736;8.734;2023-04-06T04:21:53;98026.69;;;-0.68;100.00
11448;BME280;43755;49.736;8.734;2023-04-06T04:23:55;98031.88;;;-0.73;100.00
11448;BME280;43755;49.736;8.734;2023-04-06T04:25:57;98030.97;;;-0.75;100.00
11448;BME280;43755;49.736;8.734;2023-04-06T04:27:58;98025.78;;;-0.81;100.00
11448;BME280;43755;49.736;8.734;2023-04-06T04:30:00;98025.78;;;-0.81;100.00
11448;BME280;43755;49.736;8.734;2023-04-06T04:32:01;98023.19;;;-0.81;100.00
11448;BME280;43755;49.736;8.734;2023-04-06T04:34:03;98019.72;;;-0.85;100.00
11448;BME280;43755;49.736;8.734;2023-04-06T04:36:07;98023.16;;;-0.87;100.00
11448;BME280;43755;49.736;8.734;2023-04-06T04:38:11;98026.63;;;-0.91;100.00
11448;BME280;43755;49.736;8.734;2023-04-06T04:40:13;98034.41;;;-0.94;100.00
11448;BME280;43755;49.736;8.734;2023-04-06T04:42:14;98034.38;;;-0.99;100.00
11448;BME280;43755;49.736;8.734;2023-04-06T04:44:16;98035.22;;;-1.06;100.00
11448;BME280;43755;49.736;8.734;2023-04-06T04:46:17;98035.22;;;-1.10;100.00
11448;BME280;43755;49.736;8.734;2023-04-06T04:48:19;98033.50;;;-1.08;100.00
11448;BME280;43755;49.736;8.734;2023-04-06T04:50:20;98028.31;;;-1.02;100.00
11448;BME280;43755;49.736;8.734;2023-04-06T04:52:22;98034.41;;;-0.96;100.00
11448;BME280;43755;49.736;8.734;2023-04-06T04:54:24;98035.31;;;-0.85;100.00
11448;BME280;43755;49.736;8.734;2023-04-06T04:56:26;98034.44;;;-0.79;100.00
11448;BME280;43755;49.736;8.734;2023-04-06T04:58:29;98036.22;;;-0.72;100.00
11448;BME280;43755;49.736;8.734;2023-04-06T05:00:30;98035.34;;;-0.71;100.00
11448;BME280;43755;49.736;8.734;2023-04-06T05:02:31;98035.34;;;-0.66;100.00
11448;BME280;43755;49.736;8.734;2023-04-06T05:04:33;98040.56;;;-0.60;100.00
11448;BME280;43755;49.736;8.734;2023-04-06T05:06:34;98041.44;;;-0.54;100.00
11448;BME280;43755;49.736;8.734;2023-04-06T05:08:36;98040.56;;;-0.54;100.00
11448;BME280;43755;49.736;8.734;2023-04-06T05:10:39;98045.75;;;-0.54;100.00
11448;BME280;43755;49.736;8.734;2023-04-06T05:12:41;98044.91;;;-0.55;100.00
11448;BME280;43755;49.736;8.734;2023-04-06T05:14:42;98047.47;;;-0.56;100.00
11448;BME280;43755;49.736;8.734;2023-04-06T05:16:44;98037.97;;;-0.50;100.00
11448;BME280;43755;49.736;8.734;2023-04-06T05:18:45;98051.84;;;-0.43;100.00
11448;BME280;43755;49.736;8.734;2023-04-06T05:20:48;98045.78;;;-0.37;100.00
11448;BME280;43755;49.736;8.734;2023-04-06T05:22:51;98042.31;;;-0.38;100.00
11448;BME280;43755;49.736;8.734;2023-04-06T05:24:53;98044.91;;;-0.39;100.00
11448;BME280;43755;49.736;8.734;2023-04-06T05:26:56;98044.91;;;-0.43;100.00
11448;BME280;43755;49.736;8.734;2023-04-06T05:28:57;98043.16;;;-0.34;100.00
11448;BME280;43755;49.736;8.734;2023-04-06T05:30:59;98045.78;;;-0.31;100.00
11448;BME280;43755;49.736;8.734;2023-04-06T05:33:01;98041.44;;;-0.29;100.00
11448;BME280;43755;49.736;8.734;2023-04-06T05:35:02;98051.00;;;-0.25;100.00
11448;BME280;43755;49.736;8.734;2023-04-06T05:37:04;98047.53;;;-0.24;100.00
11448;BME280;43755;49.736;8.734;2023-04-06T05:39:05;98051.84;;;-0.20;100.00
11448;BME280;43755;49.736;8.734;2023-04-06T05:41:07;98049.25;;;-0.14;100.00
11448;BME280;43755;49.736;8.734;2023-04-06T05:43:10;98051.88;;;-0.14;100.00
11448;BME280;43755;49.736;8.734;2023-04-06T05:45:12;98055.34;;;0.00;100.00
11448;BME280;43755;49.736;8.734;2023-04-06T05:47:16;98057.06;;;0.16;100.00
11448;BME280;43755;49.736;8.734;2023-04-06T05:49:18;98056.16;;;0.40;100.00
11448;BME280;43755;49.736;8.734;2023-04-06T05:51:19;98046.50;;;0.71;92.13
11448;BME280;43755;49.736;8.734;2023-04-06T05:53:21;98049.06;;;0.86;91.56
11448;BME280;43755;49.736;8.734;2023-04-06T05:55:22;98056.84;;;1.00;86.57
11448;BME280;43755;49.736;8.734;2023-04-06T05:57:24;98055.94;;;1.10;89.86
11448;BME280;43755;49.736;8.734;2023-04-06T05:59:27;98055.94;;;1.04;93.38
11448;BME280;43755;49.736;8.734;2023-04-06T06:01:28;98059.44;;;1.03;94.16
11448;BME280;43755;49.736;8.734;2023-04-06T06:03:30;98052.47;;;1.00;94.26
11448;BME280;43755;49.736;8.734;2023-04-06T06:05:32;98052.44;;;1.11;90.77
11448;BME280;43755;49.736;8.734;2023-04-06T06:07:33;98055.88;;;1.23;88.20
11448;BME280;43755;49.736;8.734;2023-04-06T06:09:35;98057.50;;;1.40;84.18
11448;BME280;43755;49.736;8.734;2023-04-06T06:11:36;98057.31;;;1.67;81.82
11448;BME280;43755;49.736;8.734;2023-04-06T06:13:38;98043.97;;;2.06;70.53
11448;BME280;43755;49.736;8.734;2023-04-06T06:15:41;98045.31;;;2.48;65.67
11448;BME280;43755;49.736;8.734;2023-04-06T06:17:43;98047.53;;;2.86;61.68
11448;BME280;43755;49.736;8.734;2023-04-06T06:19:44;98054.22;;;3.12;59.08
11448;BME280;43755;49.736;8.734;2023-04-06T06:21:46;98056.53;;;3.35;57.38
11448;BME280;43755;49.736;8.734;2023-04-06T06:23:47;98047.66;;;3.43;58.17
11448;BME280;43755;49.736;8.734;2023-04-06T06:25:50;98049.31;;;3.50;57.56
11448;BME280;43755;49.736;8.734;2023-04-06T06:27:51;98053.59;;;3.57;58.30
11448;BME280;43755;49.736;8.734;2023-04-06T06:29:53;98053.50;;;3.62;59.30
11448;BME280;43755;49.736;8.734;2023-04-06T06:31:56;98052.53;;;3.70;60.43
11448;BME280;43755;49.736;8.734;2023-04-06T06:33:57;98051.59;;;3.75;62.87
11448;BME280;43755;49.736;8.734;2023-04-06T06:35:59;98049.81;;;3.77;61.58
11448;BME280;43755;49.736;8.734;2023-04-06T06:38:00;98046.34;;;3.76;61.02
11448;BME280;43755;49.736;8.734;2023-04-06T06:40:03;98041.78;;;3.89;60.27
11448;BME280;43755;49.736;8.734;2023-04-06T06:42:05;98049.50;;;3.95;61.54
11448;BME280;43755;49.736;8.734;2023-04-06T06:44:06;98048.53;;;4.02;61.52
11448;BME280;43755;49.736;8.734;2023-04-06T06:46:08;98045.81;;;4.08;61.25
11448;BME280;43755;49.736;8.734;2023-04-06T06:48:11;98046.47;;;4.21;62.63
11448;BME280;43755;49.736;8.734;2023-04-06T06:50:13;98043.63;;;4.34;64.42
11448;BME280;43755;49.736;8.734;2023-04-06T06:52:14;98054.78;;;4.45;62.02
11448;BME280;43755;49.736;8.734;2023-04-06T06:54:16;98053.69;;;4.57;60.33
11448;BME280;43755;49.736;8.734;2023-04-06T06:56:17;98047.25;;;4.75;59.63
11448;BME280;43755;49.736;8.734;2023-04-06T06:58:19;98058.38;;;4.87;59.19
11448;BME280;43755;49.736;8.734;2023-04-06T07:00:21;98042.41;;;5.00;58.41
11448;BME280;43755;49.736;8.734;2023-04-06T07:02:22;98046.53;;;5.11;56.53
11448;BME280;43755;49.736;8.734;2023-04-06T07:04:26;98054.94;;;5.27;60.59
11448;BME280;43755;49.736;8.734;2023-04-06T07:06:27;98050.34;;;5.38;58.00
11448;BME280;43755;49.736;8.734;2023-04-06T07:08:29;98046.59;;;5.48;55.06
11448;BME280;43755;49.736;8.734;2023-04-06T07:10:30;98046.41;;;5.57;54.87
11448;BME280;43755;49.736;8.734;2023-04-06T07:12:32;98053.22;;;5.66;52.04
11448;BME280;43755;49.736;8.734;2023-04-06T07:14:33;98051.25;;;5.77;53.53
11448;BME280;43755;49.736;8.734;2023-04-06T07:16:35;98044.88;;;5.86;51.27
11448;BME280;43755;49.736;8.734;2023-04-06T07:18:36;98052.75;;;5.89;50.46
11448;BME280;43755;49.736;8.734;2023-04-06T07:20:39;98050.88;;;5.94;51.03
11448;BME280;43755;49.736;8.734;2023-04-06T07:22:42;98045.63;;;5.94;48.96
11448;BME280;43755;49.736;8.734;2023-04-06T07:24:44;98046.53;;;5.91;49.65
11448;BME280;43755;49.736;8.734;2023-04-06T07:26:46;98046.50;;;5.94;50.80
11448;BME280;43755;49.736;8.734;2023-04-06T07:28:47;98050.78;;;5.97;52.25
11448;BME280;43755;49.736;8.734;2023-04-06T07:30:49;98048.00;;;6.04;52.18
11448;BME280;43755;49.736;8.734;2023-04-06T07:32:50;98044.47;;;6.05;53.38
11448;BME280;43755;49.736;8.734;2023-04-06T07:34:52;98045.28;;;6.07;52.51
11448;BME280;43755;49.736;8.734;2023-04-06T07:36:54;98046.19;;;6.06;52.31
11448;BME280;43755;49.736;8.734;2023-04-06T07:38:58;98042.50;;;6.13;56.55
11448;BME280;43755;49.736;8.734;2023-04-06T07:40:59;98048.56;;;6.17;54.44
11448;BME280;43755;49.736;8.734;2023-04-06T07:43:03;98052.06;;;6.16;52.96
11448;BME280;43755;49.736;8.734;2023-04-06T07:45:05;98050.16;;;6.23;54.49
11448;BME280;43755;49.736;8.734;2023-04-06T07:47:07;98050.75;;;6.34;56.56
11448;BME280;43755;49.736;8.734;2023-04-06T07:49:09;98062.72;;;6.45;59.49
11448;BME280;43755;49.736;8.734;2023-04-06T07:51:10;98053.06;;;6.47;54.69
11448;BME280;43755;49.736;8.734;2023-04-06T07:53:15;98052.97;;;6.49;55.50
11448;BME280;43755;49.736;8.734;2023-04-06T07:55:17;98048.66;;;6.48;53.95
11448;BME280;43755;49.736;8.734;2023-04-06T07:57:18;98057.34;;;6.50;53.43
11448;BME280;43755;49.736;8.734;2023-04-06T07:59:20;98061.56;;;6.57;54.28
11448;BME280;43755;49.736;8.734;2023-04-06T08:01:21;98063.84;;;6.69;55.22
11448;BME280;43755;49.736;8.734;2023-04-06T08:03:23;98060.97;;;6.78;55.19
11448;BME280;43755;49.736;8.734;2023-04-06T08:05:25;98058.06;;;6.89;55.10
11448;BME280;43755;49.736;8.734;2023-04-06T08:07:27;98059.72;;;6.93;52.03
11448;BME280;43755;49.736;8.734;2023-04-06T08:09:30;98066.38;;;7.06;57.13
11448;BME280;43755;49.736;8.734;2023-04-06T08:11:31;98058.34;;;7.11;54.72
11448;BME280;43755;49.736;8.734;2023-04-06T08:13:33;98063.44;;;7.17;52.67
11448;BME280;43755;49.736;8.734;2023-04-06T08:15:35;98063.22;;;7.24;53.35
11448;BME280;43755;49.736;8.734;2023-04-06T08:17:37;98063.78;;;7.35;53.09
11448;BME280;43755;49.736;8.734;2023-04-06T08:19:38;98059.22;;;7.40;51.77
11448;BME280;43755;49.736;8.734;2023-04-06T08:21:39;98066.84;;;7.50;55.04
11448;BME280;43755;49.736;8.734;2023-04-06T08:23:41;98065.88;;;7.54;52.38
11448;BME280;43755;49.736;8.734;2023-04-06T08:25:44;98066.81;;;7.51;51.42
11448;BME280;43755;49.736;8.734;2023-04-06T08:27:46;98059.31;;;7.67;53.64
11448;BME280;43755;49.736;8.734;2023-04-06T08:29:49;98060.81;;;7.75;50.82
11448;BME280;43755;49.736;8.734;2023-04-06T08:31:51;98064.91;;;7.84;51.81
11448;BME280;43755;49.736;8.734;2023-04-06T08:33:53;98060.66;;;7.80;49.30
11448;BME280;43755;49.736;8.734;2023-04-06T08:35:55;98069.28;;;7.85;48.08
11448;BME280;43755;49.736;8.734;2023-04-06T08:37:56;98064.69;;;7.92;48.55
11448;BME280;43755;49.736;8.734;2023-04-06T08:39:58;98070.66;;;7.97;50.99
11448;BME280;43755;49.736;8.734;2023-04-06T08:42:01;98061.88;;;7.98;48.47
11448;BME280;43755;49.736;8.734;2023-04-06T08:44:04;98069.38;;;8.10;49.31
11448;BME280;43755;49.736;8.734;2023-04-06T08:46:08;98072.72;;;8.15;48.96
11448;BME280;43755;49.736;8.734;2023-04-06T08:48:11;98070.13;;;8.13;48.16
11448;BME280;43755;49.736;8.734;2023-04-06T08:50:13;98067.03;;;8.29;47.91
11448;BME280;43755;49.736;8.734;2023-04-06T08:52:17;98067.88;;;8.29;46.30
11448;BME280;43755;49.736;8.734;2023-04-06T08:54:19;98068.44;;;8.40;48.43
11448;BME280;43755;49.736;8.734;2023-04-06T08:56:21;98069.69;;;8.55;48.28
11448;BME280;43755;49.736;8.734;2023-04-06T08:58:25;98059.09;;;8.56;47.31
11448;BME280;43755;49.736;8.734;2023-04-06T09:00:29;98061.31;;;8.69;45.90
11448;BME280;43755;49.736;8.734;2023-04-06T09:02:31;98060.69;;;8.60;44.51
11448;BME280;43755;49.736;8.734;2023-04-06T09:04:35;98063.00;;;8.71;46.79
11448;BME280;43755;49.736;8.734;2023-04-06T09:06:37;98053.53;;;8.66;45.07
11448;BME280;43755;49.736;8.734;2023-04-06T09:08:41;98062.78;;;8.77;47.37
11448;BME280;43755;49.736;8.734;2023-04-06T09:10:43;98062.06;;;8.97;49.40
11448;BME280;43755;49.736;8.734;2023-04-06T09:12:45;98070.19;;;8.91;44.01
11448;BME280;43755;49.736;8.734;2023-04-06T09:14:48;98068.41;;;8.91;45.69
11448;BME280;43755;49.736;8.734;2023-04-06T09:16:50;98067.25;;;9.00;46.30
11448;BME280;43755;49.736;8.734;2023-04-06T09:18:51;98057.47;;;9.02;44.01
11448;BME280;43755;49.736;8.734;2023-04-06T09:20:57;98061.28;;;8.95;45.27
11448;BME280;43755;49.736;8.734;2023-04-06T09:22:58;98067.91;;;9.07;45.95
11448;BME280;43755;49.736;8.734;2023-04-06T09:25:00;98065.19;;;9.08;44.43
11448;BME280;43755;49.736;8.734;2023-04-06T09:27:01;98057.97;;;9.13;46.08
11448;BME280;43755;49.736;8.734;2023-04-06T09:29:03;98061.41;;;9.15;44.10
11448;BME280;43755;49.736;8.734;2023-04-06T09:31:07;98064.00;;;9.17;44.94
11448;BME280;43755;49.736;8.734;2023-04-06T09:33:10;98059.25;;;9.26;44.94
11448;BME280;43755;49.736;8.734;2023-04-06T09:35:11;98063.44;;;9.32;43.73
11448;BME280;43755;49.736;8.734;2023-04-06T09:37:14;98069.63;;;9.31;43.39
11448;BME280;43755;49.736;8.734;2023-04-06T09:39:20;98058.94;;;9.35;45.84
11448;BME280;43755;49.736;8.734;2023-04-06T09:41:23;98062.06;;;9.45;44.79
11448;BME280;43755;49.736;8.734;2023-04-06T09:43:26;98059.16;;;9.29;42.00
11448;BME280;43755;49.736;8.734;2023-04-06T09:45:29;98058.28;;;9.29;43.88
11448;BME280;43755;49.736;8.734;2023-04-06T09:47:32;98062.88;;;9.24;45.15
11448;BME280;43755;49.736;8.734;2023-04-06T09:49:34;98059.25;;;9.26;45.04
11448;BME280;43755;49.736;8.734;2023-04-06T09:51:37;98063.28;;;9.36;44.20
11448;BME280;43755;49.736;8.734;2023-04-06T09:53:41;98057.59;;;9.47;43.91
11448;BME280;43755;49.736;8.734;2023-04-06T09:55:48;98063.16;;;9.63;44.50
11448;BME280;43755;49.736;8.734;2023-04-06T09:57:58;98055.41;;;9.58;42.35
11448;BME280;43755;49.736;8.734;2023-04-06T10:00:04;98061.25;;;9.66;42.85
11448;BME280;43755;49.736;8.734;2023-04-06T10:02:15;98057.84;;;9.86;42.07
11448;BME280;43755;49.736;8.734;2023-04-06T10:04:31;98057.91;;;9.84;41.06
11448;BME280;43755;49.736;8.734;2023-04-06T10:06:36;98052.81;;;10.02;42.10
11448;BME280;43755;49.736;8.734;2023-04-06T10:08:40;98053.63;;;10.04;41.90
11448;BME280;43755;49.736;8.734;2023-04-06T10:10:42;98050.75;;;10.10;40.38
11448;BME280;43755;49.736;8.734;2023-04-06T10:12:44;98050.56;;;9.93;44.13
11448;BME280;43755;49.736;8.734;2023-04-06T10:14:46;98052.03;;;10.00;42.64
11448;BME280;43755;49.736;8.734;2023-04-06T10:16:48;98047.50;;;10.25;42.13
11448;BME280;43755;49.736;8.734;2023-04-06T10:18:55;98048.47;;;10.44;43.26
11448;BME280;43755;49.736;8.734;2023-04-06T10:21:04;98053.47;;;10.72;42.69
11448;BME280;43755;49.736;8.734;2023-04-06T10:23:11;98042.88;;;10.72;40.21
11448;BME280;43755;49.736;8.734;2023-04-06T10:25:16;98045.34;;;10.77;40.37
11448;BME280;43755;49.736;8.734;2023-04-06T10:27:27;98045.34;;;10.97;43.07
11448;BME280;43755;49.736;8.734;2023-04-06T10:29:41;98048.38;;;10.88;39.29
11448;BME280;43755;49.736;8.734;2023-04-06T10:31:43;98039.44;;;10.90;39.74
11448;BME280;43755;49.736;8.734;2023-04-06T10:33:53;98045.00;;;11.25;40.18
11448;BME280;43755;49.736;8.734;2023-04-06T10:35:55;98053.03;;;11.42;41.48
11448;BME280;43755;49.736;8.734;2023-04-06T10:38:03;98049.91;;;11.53;40.13
11448;BME280;43755;49.736;8.734;2023-04-06T10:40:06;98045.88;;;11.44;39.53
11448;BME280;43755;49.736;8.734;2023-04-06T10:42:18;98047.75;;;11.42;39.51
11448;BME280;43755;49.736;8.734;2023-04-06T10:44:25;98044.44;;;11.56;39.74
11448;BME280;43755;49.736;8.734;2023-04-06T10:46:29;98046.56;;;11.29;39.10
11448;BME280;43755;49.736;8.734;2023-04-06T10:48:37;98049.84;;;11.54;39.06